Time;durP1;ratioP1;P1;durP2;ratioP2;P2;SDS_P1;SDS_P2;PMS_P1;PMS_P2;Temp;Humidity;BMP_temperature;BMP_pressure;BME280_temperature;BME280_humidity;BME280_pressure;Samples;Min_cycle;Max_cycle;Signal;HPM_P1;HPM_P2
2023/03/23 00:01:26;;;;;;;14.55;10.60;;;11.30;99.90;;;;;;5067129;28;20094;-77
2023/03/23 00:03:56;;;;;;;14.15;10.82;;;11.30;99.90;;;;;;5052423;28;20141;-78
2023/03/23 00:06:24;;;;;;;15.82;10.73;;;11.30;99.90;;;;;;5036684;28;20044;-79
2023/03/23 00:08:56;;;;;;;15.20;10.02;;;11.20;99.90;;;;;;5045649;28;20069;-80
2023/03/23 00:11:30;;;;;;;16.13;9.98;;;11.30;99.90;;;;;;5071363;28;20376;-78
2023/03/23 00:14:00;;;;;;;12.68;9.50;;;11.30;99.90;;;;;;5064400;28;20048;-76
2023/03/23 00:16:30;;;;;;;16.08;10.43;;;11.30;99.90;;;;;;5046830;28;20032;-80
2023/03/23 00:18:58;;;;;;;14.18;10.07;;;11.30;99.90;;;;;;5055651;28;20053;-79
2023/03/23 00:21:33;;;;;;;15.50;10.00;;;11.30;99.90;;;;;;5040773;28;20055;-82
2023/03/23 00:24:10;;;;;;;11.98;8.93;;;11.30;99.90;;;;;;5056069;28;20036;-79
2023/03/23 00:26:39;;;;;;;15.60;10.02;;;11.30;99.90;;;;;;5056902;28;20048;-80
2023/03/23 00:29:07;;;;;;;14.60;9.82;;;11.30;99.90;;;;;;5060124;28;20055;-80
2023/03/23 00:31:34;;;;;;;15.00;10.05;;;11.30;99.90;;;;;;5055223;28;20044;-79
2023/03/23 00:34:03;;;;;;;11.98;9.10;;;11.20;99.90;;;;;;5055869;28;20064;-78
2023/03/23 00:36:31;;;;;;;13.95;9.80;;;11.20;99.90;;;;;;5043818;28;20040;-78
2023/03/23 00:38:59;;;;;;;15.98;9.63;;;11.30;99.90;;;;;;5055431;28;20546;-79
2023/03/23 00:41:26;;;;;;;14.13;8.82;;;11.30;99.90;;;;;;5059660;28;20058;-81
2023/03/23 00:43:56;;;;;;;15.20;9.30;;;11.30;99.90;;;;;;5039020;28;20046;-81
2023/03/23 00:46:24;;;;;;;15.27;9.27;;;11.30;99.90;;;;;;5072762;28;20037;-77
2023/03/23 00:48:50;;;;;;;14.57;8.70;;;11.20;99.90;;;;;;5062916;28;20488;-81
2023/03/23 00:51:19;;;;;;;12.23;8.63;;;11.20;99.90;;;;;;5068255;28;20119;-79
2023/03/23 00:53:46;;;;;;;16.92;8.75;;;11.30;99.90;;;;;;5044323;28;20464;-76
2023/03/23 00:56:13;;;;;;;14.05;8.77;;;11.20;99.90;;;;;;5063423;28;20032;-77
2023/03/23 00:58:39;;;;;;;13.30;8.48;;;11.20;99.90;;;;;;5072892;28;20044;-78
2023/03/23 01:01:05;;;;;;;16.25;7.78;;;11.20;99.90;;;;;;5070063;28;20047;-76
2023/03/23 01:03:33;;;;;;;11.27;6.85;;;11.20;99.90;;;;;;5035034;28;20063;-78
2023/03/23 01:06:12;;;;;;;13.48;6.90;;;11.20;99.90;;;;;;5072199;28;20047;-77
2023/03/23 01:08:44;;;;;;;11.25;6.28;;;11.20;99.90;;;;;;5044653;28;20049;-78
2023/03/23 01:11:15;;;;;;;9.35;5.53;;;11.30;99.90;;;;;;5057629;28;20048;-77
2023/03/23 01:13:44;;;;;;;11.40;5.40;;;11.30;99.90;;;;;;5074041;28;20048;-76
2023/03/23 01:16:10;;;;;;;11.07;5.43;;;11.30;99.90;;;;;;5065394;28;20051;-76
2023/03/23 01:18:37;;;;;;;8.68;4.60;;;11.20;99.90;;;;;;5054079;28;20527;-78
2023/03/23 01:21:12;;;;;;;8.70;4.43;;;11.20;99.90;;;;;;5056302;28;20055;-77
2023/03/23 01:23:38;;;;;;;10.93;4.38;;;11.30;99.90;;;;;;5054496;28;20044;-78
2023/03/23 01:26:19;;;;;;;9.13;5.00;;;11.20;99.90;;;;;;5056373;28;20082;-79
2023/03/23 01:28:46;;;;;;;9.95;4.57;;;11.20;99.90;;;;;;5054160;28;20072;-82
2023/03/23 01:31:18;;;;;;;8.00;4.70;;;11.20;99.90;;;;;;5051797;28;20509;-79
2023/03/23 01:33:44;;;;;;;8.77;4.80;;;11.20;99.90;;;;;;5052938;28;20505;-78
2023/03/23 01:36:19;;;;;;;7.75;4.50;;;11.20;99.90;;;;;;5065621;28;20041;-78
2023/03/23 01:38:47;;;;;;;8.77;4.50;;;11.20;99.90;;;;;;5062263;28;20033;-76
2023/03/23 01:41:15;;;;;;;9.48;5.32;;;11.20;99.90;;;;;;5074002;28;20042;-80
2023/03/23 01:43:54;;;;;;;9.23;5.53;;;11.20;99.90;;;;;;5055583;28;20067;-77
2023/03/23 01:46:22;;;;;;;9.07;5.57;;;11.20;99.90;;;;;;5037685;28;20098;-78
2023/03/23 01:48:50;;;;;;;10.02;5.55;;;11.20;99.90;;;;;;5057945;28;20049;-81
2023/03/23 01:51:18;;;;;;;10.48;6.10;;;11.20;99.90;;;;;;5040070;28;20037;-80
2023/03/23 01:53:50;;;;;;;10.27;6.18;;;11.20;99.90;;;;;;5057601;28;20040;-81
2023/03/23 01:56:24;;;;;;;11.32;5.60;;;11.20;99.90;;;;;;5058181;28;20119;-79
2023/03/23 01:58:52;;;;;;;11.27;5.32;;;11.20;99.90;;;;;;5058900;28;20380;-79
2023/03/23 02:01:21;;;;;;;8.52;5.00;;;11.20;99.90;;;;;;5058214;28;20095;-79
2023/03/23 02:03:48;;;;;;;11.02;5.47;;;11.20;99.90;;;;;;5041634;28;20084;-82
2023/03/23 02:06:14;;;;;;;10.43;5.50;;;11.20;99.90;;;;;;5073553;28;20117;-82
2023/03/23 02:08:43;;;;;;;11.98;5.72;;;11.20;99.90;;;;;;5087040;28;20040;-78
2023/03/23 02:11:17;;;;;;;10.23;5.40;;;11.20;99.90;;;;;;5090076;28;20044;-79
2023/03/23 02:13:43;;;;;;;10.07;5.28;;;11.20;99.90;;;;;;5058812;28;20483;-79
2023/03/23 02:16:18;;;;;;;9.75;5.03;;;11.20;99.90;;;;;;5065186;28;20142;-82
2023/03/23 02:19:07;;;;;;;10.25;5.07;;;11.20;99.90;;;;;;5075102;28;20167;-80
2023/03/23 02:21:56;;;;;;;9.38;4.47;;;11.20;99.90;;;;;;5056846;28;20052;-78
2023/03/23 02:24:43;;;;;;;9.30;5.15;;;11.20;99.90;;;;;;5062219;28;20055;-78
2023/03/23 02:27:16;;;;;;;9.13;5.15;;;11.20;99.90;;;;;;5071518;28;20488;-77
2023/03/23 02:29:42;;;;;;;10.95;5.15;;;11.20;99.90;;;;;;5056113;28;20494;-77
2023/03/23 02:32:39;;;;;;;10.65;4.90;;;11.20;99.90;;;;;;5057834;28;20032;-79
2023/03/23 02:35:50;;;;;;;8.82;4.53;;;11.20;99.90;;;;;;5050684;28;20048;-80
2023/03/23 02:38:26;;;;;;;9.30;4.75;;;11.30;99.90;;;;;;5062779;28;20460;-79
2023/03/23 02:40:54;;;;;;;8.38;4.85;;;11.20;99.90;;;;;;5041674;28;20076;-79
2023/03/23 02:43:23;;;;;;;8.93;4.90;;;11.20;99.90;;;;;;5058307;28;20036;-77
2023/03/23 02:45:50;;;;;;;9.23;5.05;;;11.20;99.90;;;;;;5044318;28;20052;-77
2023/03/23 02:48:20;;;;;;;9.00;4.88;;;11.20;99.90;;;;;;5040611;28;20043;-77
2023/03/23 02:50:50;;;;;;;9.07;4.78;;;11.20;99.90;;;;;;5062122;28;20472;-78
2023/03/23 02:53:22;;;;;;;10.20;4.88;;;11.20;99.90;;;;;;5062633;28;20088;-81
2023/03/23 02:55:52;;;;;;;9.45;5.00;;;11.20;99.90;;;;;;5057386;28;20356;-78
2023/03/23 02:58:19;;;;;;;10.32;5.00;;;11.20;99.90;;;;;;5030915;28;20049;-79
2023/03/23 03:00:49;;;;;;;9.30;4.97;;;11.10;99.90;;;;;;5074551;28;20036;-77
2023/03/23 03:03:19;;;;;;;8.00;4.68;;;11.20;99.90;;;;;;5057631;28;20131;-75
2023/03/23 03:06:00;;;;;;;9.07;5.60;;;11.20;99.90;;;;;;5056293;28;20059;-79
2023/03/23 03:08:52;;;;;;;8.15;5.07;;;11.20;99.90;;;;;;5057388;28;20044;-79
2023/03/23 03:11:22;;;;;;;;;;;11.20;99.90;;;;;;5048883;28;20037;-77
2023/03/23 03:14:04;;;;;;;9.23;5.13;;;11.20;99.90;;;;;;5047719;28;20280;-79
2023/03/23 03:17:00;;;;;;;8.80;4.63;;;11.20;99.90;;;;;;5062679;28;20362;-78
2023/03/23 03:19:42;;;;;;;10.50;5.75;;;11.20;99.90;;;;;;5033488;28;20052;-78
2023/03/23 03:22:09;;;;;;;9.25;5.50;;;11.20;99.90;;;;;;5040647;28;20044;-79
2023/03/23 03:24:40;;;;;;;7.65;5.20;;;11.20;99.90;;;;;;5037963;28;20056;-79
2023/03/23 03:27:14;;;;;;;8.90;4.30;;;11.20;99.90;;;;;;5038839;28;20101;-76
2023/03/23 03:29:43;;;;;;;9.27;4.80;;;11.20;99.90;;;;;;5032947;28;20052;-82
2023/03/23 03:32:12;;;;;;;9.43;4.55;;;11.20;99.90;;;;;;5064383;28;20380;-79
2023/03/23 03:34:38;;;;;;;7.40;4.78;;;11.30;99.90;;;;;;5056726;28;20481;-78
2023/03/23 03:37:05;;;;;;;9.63;4.97;;;11.20;99.90;;;;;;5023729;28;20044;-79
2023/03/23 03:39:35;;;;;;;7.35;4.45;;;11.20;99.90;;;;;;5036852;28;20151;-80
2023/03/23 03:42:01;;;;;;;7.30;4.72;;;11.20;99.90;;;;;;5046379;28;20125;-79
2023/03/23 03:44:27;;;;;;;7.85;4.50;;;11.20;99.90;;;;;;5039548;28;20075;-78
2023/03/23 03:46:53;;;;;;;9.10;4.32;;;11.30;99.90;;;;;;5056532;28;20110;-79
2023/03/23 03:49:19;;;;;;;8.82;5.07;;;11.30;99.90;;;;;;5073365;28;20423;-77
2023/03/23 03:51:45;;;;;;;8.43;4.95;;;11.40;99.90;;;;;;5055570;28;20036;-79
2023/03/23 03:54:11;;;;;;;8.35;5.15;;;11.40;99.90;;;;;;5072837;28;20084;-80
2023/03/23 03:56:40;;;;;;;10.50;4.47;;;11.40;99.90;;;;;;5056004;28;20048;-80
2023/03/23 03:59:09;;;;;;;8.13;4.60;;;11.40;99.90;;;;;;5047849;28;20049;-79
2023/03/23 04:01:37;;;;;;;8.25;4.60;;;11.50;99.90;;;;;;5070906;28;20055;-79
2023/03/23 04:04:06;;;;;;;9.77;4.75;;;11.50;99.90;;;;;;5045077;28;20048;-80
2023/03/23 04:06:32;;;;;;;10.00;4.85;;;11.50;99.90;;;;;;5075044;28;20048;-80
2023/03/23 04:08:58;;;;;;;8.25;5.03;;;11.60;99.90;;;;;;5072495;28;20067;-81
2023/03/23 04:11:25;;;;;;;8.32;4.63;;;11.60;99.90;;;;;;5039151;28;20124;-79
2023/03/23 04:13:51;;;;;;;8.45;5.03;;;11.60;99.90;;;;;;5082862;28;20139;-81
2023/03/23 04:16:18;;;;;;;8.40;4.85;;;11.50;99.90;;;;;;5049550;28;20059;-79
2023/03/23 04:18:44;;;;;;;8.48;4.88;;;11.60;99.90;;;;;;5073315;28;20127;-78
2023/03/23 04:21:10;;;;;;;8.32;4.70;;;11.50;99.90;;;;;;5054844;28;20044;-80
2023/03/23 04:23:38;;;;;;;8.35;5.28;;;11.50;99.90;;;;;;5052312;28;20090;-78
2023/03/23 04:26:04;;;;;;;8.18;4.63;;;11.50;99.90;;;;;;5021359;28;20417;-82
2023/03/23 04:28:33;;;;;;;8.35;4.90;;;11.50;99.90;;;;;;5042419;28;20041;-81
2023/03/23 04:31:00;;;;;;;8.65;4.78;;;11.50;99.90;;;;;;5069902;28;20051;-80
2023/03/23 04:33:27;;;;;;;10.05;4.93;;;11.40;99.90;;;;;;5073111;28;20137;-80
2023/03/23 04:35:56;;;;;;;10.38;5.25;;;11.40;99.90;;;;;;5054713;28;20123;-77
2023/03/23 04:38:24;;;;;;;9.80;5.68;;;11.50;99.90;;;;;;5039197;28;20051;-77
2023/03/23 04:40:51;;;;;;;8.82;4.95;;;11.40;99.90;;;;;;5041836;28;20052;-80
2023/03/23 04:43:22;;;;;;;9.82;5.50;;;11.50;99.90;;;;;;5055562;28;20368;-80
2023/03/23 04:45:59;;;;;;;9.27;5.28;;;11.50;99.90;;;;;;5038849;28;20040;-77
2023/03/23 04:48:28;;;;;;;8.48;4.70;;;11.40;99.90;;;;;;5065302;28;20070;-80
2023/03/23 04:50:54;;;;;;;9.63;5.00;;;11.40;99.90;;;;;;5058673;28;20036;-79
2023/03/23 04:53:20;;;;;;;8.25;5.10;;;11.50;99.90;;;;;;5055204;28;20033;-80
2023/03/23 04:55:47;;;;;;;9.60;4.82;;;11.50;99.90;;;;;;5069530;28;20102;-79
2023/03/23 04:58:14;;;;;;;9.05;4.90;;;11.60;99.90;;;;;;5055283;28;20111;-79
2023/03/23 05:00:43;;;;;;;8.77;4.53;;;11.50;99.90;;;;;;5072898;28;20358;-76
2023/03/23 05:03:11;;;;;;;10.10;4.85;;;11.60;99.90;;;;;;5054901;28;20087;-77
2023/03/23 05:05:37;;;;;;;8.40;4.82;;;11.50;99.90;;;;;;5038266;28;20040;-76
2023/03/23 05:08:03;;;;;;;9.50;4.90;;;11.50;99.90;;;;;;5054816;28;20044;-78
2023/03/23 05:10:29;;;;;;;10.60;5.05;;;11.50;99.90;;;;;;5061430;28;20045;-80
2023/03/23 05:12:54;;;;;;;10.18;4.90;;;11.50;99.90;;;;;;5054986;28;20051;-78
2023/03/23 05:15:20;;;;;;;8.57;4.25;;;11.50;99.90;;;;;;5079229;28;20603;-77
2023/03/23 05:17:48;;;;;;;8.55;4.97;;;11.60;99.90;;;;;;5053633;28;20511;-79
2023/03/23 05:20:19;;;;;;;10.90;5.43;;;11.60;99.90;;;;;;5034835;28;20044;-77
2023/03/23 05:22:47;;;;;;;10.70;5.50;;;11.50;99.90;;;;;;5049087;28;20468;-76
2023/03/23 05:25:13;;;;;;;9.60;2.70;;;11.50;99.90;;;;;;5072685;28;20115;-73
2023/03/23 05:27:43;;;;;;;7.32;2.28;;;11.30;99.90;;;;;;5058753;28;20032;-75
2023/03/23 05:30:09;;;;;;;7.90;2.10;;;11.10;99.90;;;;;;5066178;28;20052;-72
2023/03/23 05:32:37;;;;;;;8.77;2.75;;;11.00;99.90;;;;;;5043255;28;20056;-72
2023/03/23 05:35:03;;;;;;;9.95;2.67;;;10.80;99.90;;;;;;5053568;28;20125;-73
2023/03/23 05:37:32;;;;;;;9.45;2.90;;;10.70;99.90;;;;;;5053377;28;20040;-74
2023/03/23 05:40:04;;;;;;;9.85;2.72;;;10.70;99.90;;;;;;5054627;28;20044;-74
2023/03/23 05:42:31;;;;;;;9.07;2.80;;;10.60;99.90;;;;;;5057140;28;20138;-76
2023/03/23 05:44:58;;;;;;;7.43;2.42;;;10.60;99.90;;;;;;5060329;28;20052;-75
2023/03/23 05:47:25;;;;;;;8.23;2.50;;;10.60;99.90;;;;;;5054412;28;20036;-75
2023/03/23 05:49:51;;;;;;;10.18;2.60;;;10.60;99.90;;;;;;5064172;28;20052;-76
2023/03/23 05:52:18;;;;;;;9.13;2.53;;;10.60;99.90;;;;;;5071210;28;20051;-76
2023/03/23 05:54:44;;;;;;;10.77;2.80;;;10.60;99.90;;;;;;5050489;28;20059;-76
2023/03/23 05:57:10;;;;;;;10.30;2.90;;;10.60;99.90;;;;;;5052258;28;20381;-75
2023/03/23 05:59:37;;;;;;;10.13;3.08;;;10.60;99.90;;;;;;5069741;28;20071;-75
2023/03/23 06:02:04;;;;;;;10.20;3.20;;;10.60;99.90;;;;;;5054169;28;20098;-76
2023/03/23 06:04:29;;;;;;;10.38;3.60;;;10.60;99.90;;;;;;5045955;28;20434;-76
2023/03/23 06:06:55;;;;;;;12.43;4.53;;;10.60;99.90;;;;;;5037184;28;20044;-76
2023/03/23 06:09:23;;;;;;;9.32;4.50;;;10.60;99.90;;;;;;5034893;28;20148;-77
2023/03/23 06:11:49;;;;;;;10.00;4.03;;;10.70;99.90;;;;;;5050738;28;20051;-76
2023/03/23 06:14:17;;;;;;;10.25;3.90;;;10.70;99.90;;;;;;5070788;28;20044;-76
2023/03/23 06:16:43;;;;;;;9.75;3.70;;;10.70;99.90;;;;;;5034057;28;20053;-75
2023/03/23 06:19:09;;;;;;;9.80;3.80;;;10.80;99.90;;;;;;5047997;28;20040;-77
2023/03/23 06:21:35;;;;;;;8.15;3.22;;;10.80;99.90;;;;;;5066230;28;20051;-76
2023/03/23 06:24:00;;;;;;;10.60;3.17;;;10.90;99.90;;;;;;5056029;28;20050;-77
2023/03/23 06:26:32;;;;;;;8.13;2.80;;;10.90;99.90;;;;;;5062429;28;20367;-78
2023/03/23 06:28:57;;;;;;;7.15;2.50;;;10.90;99.90;;;;;;5057812;28;20041;-77
2023/03/23 06:31:26;;;;;;;8.15;2.65;;;10.90;99.90;;;;;;5072276;28;20361;-77
2023/03/23 06:33:51;;;;;;;9.32;2.80;;;10.90;99.90;;;;;;5067963;28;20047;-77
2023/03/23 06:36:18;;;;;;;8.63;2.40;;;10.90;99.90;;;;;;5038821;28;20404;-78
2023/03/23 06:38:44;;;;;;;8.75;2.47;;;10.90;99.90;;;;;;5041681;28;20076;-78
2023/03/23 06:41:11;;;;;;;9.40;2.67;;;10.90;99.90;;;;;;5037041;28;20051;-77
2023/03/23 06:43:39;;;;;;;9.98;2.80;;;10.90;99.90;;;;;;5075746;28;20086;-77
2023/03/23 06:46:05;;;;;;;9.45;2.72;;;10.80;99.90;;;;;;5053620;28;20342;-77
2023/03/23 06:48:31;;;;;;;9.95;2.58;;;10.90;99.90;;;;;;5080863;28;20070;-78
2023/03/23 06:50:58;;;;;;;9.13;2.75;;;11.00;99.90;;;;;;5052479;28;20120;-74
2023/03/23 06:53:24;;;;;;;9.82;3.00;;;11.00;99.90;;;;;;5049825;28;20045;-77
2023/03/23 06:55:50;;;;;;;9.48;2.60;;;11.10;99.90;;;;;;5057332;28;20436;-79
2023/03/23 06:58:16;;;;;;;12.05;3.08;;;11.10;99.90;;;;;;5080939;28;20097;-79
2023/03/23 07:00:42;;;;;;;11.82;2.90;;;11.10;99.90;;;;;;5057576;28;20040;-79
2023/03/23 07:03:08;;;;;;;12.65;3.40;;;11.00;99.90;;;;;;5026356;28;20040;-76
2023/03/23 07:05:35;;;;;;;12.07;2.95;;;11.10;99.90;;;;;;5063753;28;20036;-77
2023/03/23 07:08:04;;;;;;;10.02;2.97;;;11.10;99.90;;;;;;5012394;28;20053;-77
2023/03/23 07:10:32;;;;;;;12.25;2.80;;;11.10;99.90;;;;;;5053822;28;20048;-76
2023/03/23 07:12:59;;;;;;;13.05;3.17;;;11.10;99.90;;;;;;5063668;28;20053;-77
2023/03/23 07:15:25;;;;;;;12.70;3.33;;;11.10;99.90;;;;;;5073338;28;20040;-77
2023/03/23 07:17:51;;;;;;;14.35;3.17;;;11.10;99.90;;;;;;5072289;28;20044;-79
2023/03/23 07:20:17;;;;;;;18.42;3.65;;;11.10;99.90;;;;;;5072501;28;20462;-76
2023/03/23 07:22:43;;;;;;;12.25;3.20;;;11.10;99.90;;;;;;5054095;28;20044;-75
2023/03/23 07:25:10;;;;;;;13.20;3.63;;;11.10;99.90;;;;;;5072828;28;20491;-76
2023/03/23 07:27:36;;;;;;;14.05;3.40;;;11.10;99.90;;;;;;5037728;28;20624;-76
2023/03/23 07:30:01;;;;;;;12.30;3.47;;;11.20;99.90;;;;;;5038707;28;20044;-76
2023/03/23 07:32:27;;;;;;;15.02;3.53;;;11.20;99.90;;;;;;5038203;28;20467;-75
2023/03/23 07:34:53;;;;;;;12.48;3.35;;;11.30;99.90;;;;;;5071335;28;20041;-75
2023/03/23 07:37:18;;;;;;;16.45;3.70;;;11.30;99.90;;;;;;5072588;28;20063;-75
2023/03/23 07:39:45;;;;;;;14.73;3.70;;;11.30;99.90;;;;;;5064313;28;20050;-75
2023/03/23 07:42:10;;;;;;;12.88;3.95;;;11.30;99.90;;;;;;5053614;28;20045;-73
2023/03/23 07:44:36;;;;;;;14.27;3.78;;;11.40;99.90;;;;;;5069325;28;20075;-75
2023/03/23 07:47:02;;;;;;;14.30;3.70;;;11.40;99.90;;;;;;5029424;28;20396;-75
2023/03/23 07:49:27;;;;;;;14.90;3.90;;;11.40;99.90;;;;;;5034922;28;20123;-75
2023/03/23 07:51:53;;;;;;;12.65;3.80;;;11.50;99.90;;;;;;5033614;28;20574;-75
2023/03/23 07:54:19;;;;;;;11.02;3.42;;;11.60;99.90;;;;;;5070572;28;20045;-75
2023/03/23 07:56:45;;;;;;;13.10;3.80;;;11.70;99.90;;;;;;5072880;28;20040;-75
2023/03/23 07:59:12;;;;;;;12.60;4.00;;;11.70;99.90;;;;;;5047372;28;20127;-74
2023/03/23 08:01:39;;;;;;;11.73;3.47;;;11.90;99.90;;;;;;5047274;28;20043;-74
2023/03/23 08:04:05;;;;;;;11.30;3.65;;;11.90;99.90;;;;;;5055048;28;20081;-75
2023/03/23 08:06:34;;;;;;;12.95;3.63;;;11.90;99.90;;;;;;5069992;28;20044;-74
2023/03/23 08:09:00;;;;;;;12.05;3.55;;;12.00;99.90;;;;;;5053606;28;20456;-76
2023/03/23 08:11:26;;;;;;;10.10;3.13;;;12.00;99.90;;;;;;5048986;28;20080;-74
2023/03/23 08:13:52;;;;;;;12.40;3.38;;;12.00;99.90;;;;;;5037135;28;20106;-75
2023/03/23 08:16:19;;;;;;;14.63;3.70;;;12.00;99.90;;;;;;5053482;28;20039;-75
2023/03/23 08:18:45;;;;;;;11.30;3.25;;;12.10;99.90;;;;;;5066667;28;20421;-75
2023/03/23 08:21:12;;;;;;;12.13;3.28;;;12.20;99.90;;;;;;5068188;28;20048;-75
2023/03/23 08:23:39;;;;;;;15.18;3.47;;;12.20;99.90;;;;;;5053607;28;20479;-75
2023/03/23 08:26:09;;;;;;;15.43;3.95;;;12.10;99.90;;;;;;5036298;28;20044;-76
2023/03/23 08:28:36;;;;;;;13.73;3.70;;;12.20;99.90;;;;;;5066107;28;20415;-75
2023/03/23 08:31:13;;;;;;;15.68;4.13;;;12.20;99.90;;;;;;5053768;28;20380;-77
2023/03/23 08:33:39;;;;;;;15.57;3.63;;;12.20;99.90;;;;;;5054079;28;20404;-75
2023/03/23 08:36:06;;;;;;;14.40;3.80;;;12.30;99.90;;;;;;5053000;28;20049;-76
2023/03/23 08:38:32;;;;;;;15.13;4.07;;;12.30;99.90;;;;;;5053648;28;20090;-75
2023/03/23 08:41:04;;;;;;;18.13;4.00;;;12.30;99.90;;;;;;5053327;28;20123;-75
2023/03/23 08:43:30;;;;;;;;;;;12.30;99.90;;;;;;5037021;28;20418;-76
2023/03/23 08:45:56;;;;;;;16.95;3.95;;;12.30;99.90;;;;;;5068251;28;20003;-75
2023/03/23 08:48:25;;;;;;;18.33;4.20;;;12.30;99.90;;;;;;5069959;28;20132;-74
2023/03/23 08:50:54;;;;;;;14.57;4.05;;;12.20;99.90;;;;;;5036410;28;20052;-74
2023/03/23 08:53:20;;;;;;;16.70;4.18;;;12.20;99.90;;;;;;5036894;28;20105;-73
2023/03/23 08:55:47;;;;;;;14.60;4.18;;;12.10;99.90;;;;;;5053035;28;20036;-75
2023/03/23 08:58:13;;;;;;;14.43;4.03;;;12.10;99.90;;;;;;5036829;28;20218;-77
2023/03/23 09:00:39;;;;;;;12.50;3.97;;;12.10;99.90;;;;;;5065644;28;20143;-78
2023/03/23 09:03:05;;;;;;;14.05;3.85;;;12.00;99.90;;;;;;5018678;28;20048;-78
2023/03/23 09:05:31;;;;;;;17.05;4.03;;;12.10;99.90;;;;;;5052144;28;20074;-79
2023/03/23 09:07:58;;;;;;;18.27;4.47;;;12.20;99.90;;;;;;5036406;28;20045;-79
2023/03/23 09:10:30;;;;;;;15.57;3.90;;;12.20;99.90;;;;;;5052322;28;20158;-79
2023/03/23 09:12:56;;;;;;;15.17;4.23;;;12.30;99.90;;;;;;5052992;28;20055;-78
2023/03/23 09:15:23;;;;;;;17.95;4.28;;;12.40;99.90;;;;;;5069564;28;20761;-77
2023/03/23 09:17:50;;;;;;;18.17;4.30;;;12.40;99.90;;;;;;5052969;28;20487;-79
2023/03/23 09:20:20;;;;;;;17.55;4.70;;;12.40;99.90;;;;;;5052539;28;20070;-76
2023/03/23 09:22:49;;;;;;;13.40;4.15;;;12.40;99.90;;;;;;5052969;28;20047;-79
2023/03/23 09:25:18;;;;;;;19.63;4.47;;;12.40;99.90;;;;;;5050906;28;20051;-77
2023/03/23 09:27:47;;;;;;;15.48;4.50;;;12.50;99.90;;;;;;5036006;28;20132;-80
2023/03/23 09:30:18;;;;;;;17.88;4.70;;;12.50;99.90;;;;;;5052969;28;20512;-78
2023/03/23 09:32:45;;;;;;;13.27;3.95;;;12.50;99.90;;;;;;5050266;28;20048;-76
2023/03/23 09:35:15;;;;;;;14.35;4.53;;;12.50;99.90;;;;;;5067385;28;20074;-77
2023/03/23 09:37:43;;;;;;;13.38;4.10;;;12.40;99.90;;;;;;5049117;28;20464;-77
2023/03/23 09:40:46;;;;;;;16.83;4.68;;;12.40;99.90;;;;;;5074182;28;20044;-77
2023/03/23 09:43:21;;;;;;;13.93;4.50;;;12.40;99.90;;;;;;4996849;28;20041;-76
2023/03/23 09:45:59;;;;;;;16.45;4.13;;;12.40;99.90;;;;;;5035425;28;20101;-78
2023/03/23 09:48:29;;;;;;;14.45;4.55;;;12.60;99.90;;;;;;5069716;28;20051;-75
2023/03/23 09:51:08;;;;;;;15.63;4.50;;;12.80;99.90;;;;;;5052862;28;20101;-78
2023/03/23 09:53:41;;;;;;;14.77;4.50;;;13.20;99.90;;;;;;5050185;28;20090;-77
2023/03/23 09:56:16;;;;;;;16.05;4.80;;;13.60;99.90;;;;;;5070175;28;20040;-78
2023/03/23 09:59:12;;;;;;;13.68;4.30;;;13.80;99.90;;;;;;5069783;28;20048;-78
2023/03/23 10:01:46;;;;;;;16.50;4.78;;;13.90;99.90;;;;;;5051815;28;20376;-78
2023/03/23 10:04:43;;;;;;;14.00;4.28;;;14.10;99.90;;;;;;5035370;28;20116;-78
2023/03/23 10:07:26;;;;;;;13.13;3.65;;;14.30;99.90;;;;;;5069524;28;20040;-77
2023/03/23 10:09:53;;;;;;;14.23;3.60;;;14.20;99.90;;;;;;5071617;28;20536;-76
2023/03/23 10:12:44;;;;;;;12.93;3.75;;;14.10;99.90;;;;;;5073961;28;20103;-79
2023/03/23 10:15:16;;;;;;;14.13;3.35;;;14.30;99.90;;;;;;5056114;28;20036;-77
2023/03/23 10:17:42;;;;;;;14.20;3.00;;;14.60;99.90;;;;;;5039857;28;20102;-78
2023/03/23 10:20:20;;;;;;;11.35;3.13;;;14.70;99.90;;;;;;5074007;28;20044;-76
2023/03/23 10:22:55;;;;;;;12.35;3.33;;;14.90;99.90;;;;;;5055696;28;20143;-78
2023/03/23 10:25:26;;;;;;;8.93;3.30;;;15.00;99.90;;;;;;5055455;28;20048;-80
2023/03/23 10:28:03;;;;;;;13.07;3.30;;;15.20;99.90;;;;;;5039907;28;20119;-78
2023/03/23 10:30:37;;;;;;;11.75;3.38;;;15.20;99.90;;;;;;5054589;28;20048;-78
2023/03/23 10:33:29;;;;;;;11.32;3.20;;;15.30;99.90;;;;;;5072808;28;20415;-80
2023/03/23 10:36:01;;;;;;;11.07;3.00;;;15.30;99.90;;;;;;5045321;28;20052;-79
2023/03/23 10:38:37;;;;;;;10.88;2.80;;;15.20;99.90;;;;;;5054524;28;20388;-80
2023/03/23 10:41:17;;;;;;;10.60;3.13;;;15.40;99.90;;;;;;5055795;28;20426;-77
2023/03/23 10:43:44;;;;;;;9.63;2.63;;;15.50;99.90;;;;;;5055035;28;20063;-77
2023/03/23 10:46:22;;;;;;;9.07;2.63;;;15.50;99.90;;;;;;5038876;28;20039;-76
2023/03/23 10:48:51;;;;;;;9.48;2.75;;;15.30;99.90;;;;;;5074066;28;20066;-79
2023/03/23 10:51:22;;;;;;;10.55;2.70;;;15.40;99.90;;;;;;5055724;28;20431;-80
2023/03/23 10:53:57;;;;;;;10.27;2.75;;;15.50;99.90;;;;;;5055462;28;20044;-79
2023/03/23 10:56:27;;;;;;;9.20;2.60;;;15.50;99.90;;;;;;5055604;28;20044;-80
2023/03/23 10:58:54;;;;;;;12.13;2.58;;;15.30;99.90;;;;;;5054650;28;20464;-79
2023/03/23 11:01:31;;;;;;;10.50;2.75;;;15.20;99.90;;;;;;5073289;28;20054;-77
2023/03/23 11:04:00;;;;;;;9.57;2.70;;;14.90;99.90;;;;;;5054627;28;20119;-78
2023/03/23 11:06:39;;;;;;;10.40;2.60;;;14.60;99.90;;;;;;5052199;28;20040;-77
2023/03/23 11:09:18;;;;;;;11.00;2.55;;;14.80;99.90;;;;;;5057540;28;20499;-77
2023/03/23 11:11:54;;;;;;;10.90;2.67;;;15.20;99.90;;;;;;5073064;28;20049;-80
2023/03/23 11:14:32;;;;;;;9.20;2.58;;;15.50;99.90;;;;;;5038595;28;20094;-79
2023/03/23 11:17:06;;;;;;;11.30;2.83;;;15.80;99.90;;;;;;5053404;28;20432;-80
2023/03/23 11:19:37;;;;;;;12.48;2.70;;;15.90;99.90;;;;;;5062422;28;20036;-78
2023/03/23 11:22:07;;;;;;;9.50;2.33;;;16.00;99.90;;;;;;5055845;28;20139;-76
2023/03/23 11:24:42;;;;;;;9.40;2.38;;;16.20;99.90;;;;;;5064698;28;20037;-78
2023/03/23 11:27:10;;;;;;;8.68;2.20;;;16.30;99.90;;;;;;5055691;28;20123;-79
2023/03/23 11:29:45;;;;;;;9.35;2.35;;;16.30;99.90;;;;;;5053953;28;20083;-77
2023/03/23 11:32:12;;;;;;;11.45;2.50;;;16.30;99.90;;;;;;5068442;28;20052;-77
2023/03/23 11:34:44;;;;;;;12.43;2.75;;;16.10;99.90;;;;;;5050709;28;20055;-77
2023/03/23 11:37:36;;;;;;;11.98;2.58;;;15.90;99.90;;;;;;5056849;28;20048;-77
2023/03/23 11:40:14;;;;;;;9.07;2.40;;;15.70;99.90;;;;;;5053585;28;20405;-78
2023/03/23 11:42:58;;;;;;;11.05;2.35;;;15.60;99.90;;;;;;5060268;28;20052;-77
2023/03/23 11:45:40;;;;;;;11.80;2.88;;;15.40;99.90;;;;;;5071599;28;20476;-74
2023/03/23 11:48:22;;;;;;;11.48;2.70;;;15.30;99.90;;;;;;5052305;28;20468;-78
2023/03/23 11:51:12;;;;;;;11.13;2.78;;;15.10;99.90;;;;;;5071722;28;20496;-79
2023/03/23 11:54:20;;;;;;;8.73;2.42;;;14.90;99.90;;;;;;5068592;28;20384;-77
2023/03/23 11:56:47;;;;;;;11.02;2.60;;;15.10;99.90;;;;;;5034729;28;20098;-78
2023/03/23 11:59:33;;;;;;;13.13;2.45;;;15.30;99.90;;;;;;5050858;28;20173;-76
2023/03/23 12:02:24;;;;;;;11.15;2.70;;;15.40;99.90;;;;;;5067579;28;20111;-78
2023/03/23 12:05:16;;;;;;;9.95;2.40;;;15.30;99.90;;;;;;5052766;28;20040;-79
2023/03/23 12:08:24;;;;;;;11.35;2.50;;;15.20;99.90;;;;;;5053202;28;20040;-75
2023/03/23 12:11:04;;;;;;;10.40;2.60;;;15.20;99.90;;;;;;5016402;28;20117;-76
2023/03/23 12:13:52;;;;;;;11.82;2.70;;;15.20;99.90;;;;;;5065596;28;20083;-77
2023/03/23 12:16:27;;;;;;;10.52;2.80;;;15.20;99.90;;;;;;5047955;28;20044;-78
2023/03/23 12:19:17;;;;;;;10.23;2.53;;;15.30;99.90;;;;;;5070988;28;20121;-77
2023/03/23 12:22:33;;;;;;;11.15;2.38;;;15.40;99.90;;;;;;5050359;28;20108;-76
2023/03/23 12:25:15;;;;;;;12.15;2.63;;;15.30;99.90;;;;;;4992035;28;20065;-78
2023/03/23 12:28:01;;;;;;;11.77;2.63;;;15.40;99.90;;;;;;5053085;28;20037;-76
2023/03/23 12:30:57;;;;;;;9.48;2.30;;;15.40;99.90;;;;;;5053665;28;20052;-77
2023/03/23 12:34:01;;;;;;;9.57;2.30;;;15.50;99.90;;;;;;5070424;28;20084;-77
2023/03/23 12:36:47;;;;;;;9.40;2.55;;;15.60;99.90;;;;;;5053665;28;20384;-75
2023/03/23 12:39:44;;;;;;;12.57;2.92;;;15.50;99.90;;;;;;5071414;28;20138;-76
2023/03/23 12:42:31;;;;;;;9.75;2.17;;;15.40;99.90;;;;;;5053917;28;20464;-76
2023/03/23 12:45:27;;;;;;;10.27;2.67;;;15.30;99.90;;;;;;5053126;28;20036;-76
2023/03/23 12:48:02;;;;;;;12.48;2.60;;;15.10;99.90;;;;;;5056417;28;20074;-77
2023/03/23 12:50:45;;;;;;;15.15;2.65;;;15.10;99.90;;;;;;5037424;28;20079;-77
2023/03/23 12:53:23;;;;;;;9.63;2.25;;;15.30;99.90;;;;;;5037584;28;20036;-75
2023/03/23 12:56:23;;;;;;;11.23;2.50;;;15.50;99.90;;;;;;5052928;28;20361;-78
2023/03/23 12:58:58;;;;;;;11.60;2.60;;;15.60;99.90;;;;;;5069858;28;20460;-76
2023/03/23 13:01:29;;;;;;;10.50;2.35;;;15.60;98.80;;;;;;5070577;28;20051;-76
2023/03/23 13:04:10;;;;;;;8.55;2.25;;;15.40;99.30;;;;;;5070405;28;20055;-76